Time;durP1;ratioP1;P1;durP2;ratioP2;P2;SDS_P1;SDS_P2;PMS_P1;PMS_P2;Temp;Humidity;BMP_temperature;BMP_pressure;BME280_temperature;BME280_humidity;BME280_pressure;Samples;Min_cycle;Max_cycle;Signal;HPM_P1;HPM_P2
2022/07/12 00:01:43;;;;;;;1.17;1.10;;;26.00;40.60;;;;;;5064847;28;46532;-71
2022/07/12 00:04:10;;;;;;;1.23;1.20;;;26.00;40.60;;;;;;5067540;28;45272;-71
2022/07/12 00:06:37;;;;;;;1.95;1.10;;;26.00;40.70;;;;;;5067676;28;45146;-70
2022/07/12 00:09:05;;;;;;;1.23;1.17;;;26.00;40.60;;;;;;5067865;28;45229;-70
2022/07/12 00:11:32;;;;;;;1.10;1.10;;;26.00;40.60;;;;;;5067438;28;46725;-70
2022/07/12 00:13:59;;;;;;;1.02;1.02;;;26.00;40.80;;;;;;5067493;28;45220;-70
2022/07/12 00:16:25;;;;;;;1.33;1.02;;;26.00;40.80;;;;;;5067571;28;45335;-71
2022/07/12 00:18:53;;;;;;;1.35;1.25;;;25.90;40.60;;;;;;5067765;28;45403;-70
2022/07/12 00:21:20;;;;;;;1.00;1.00;;;25.90;40.70;;;;;;5067217;28;46671;-71
2022/07/12 00:23:47;;;;;;;1.13;1.13;;;25.90;40.60;;;;;;5066629;28;45244;-71
2022/07/12 00:26:15;;;;;;;1.20;1.10;;;25.90;40.60;;;;;;5067394;28;45259;-70
2022/07/12 00:28:42;;;;;;;1.05;1.05;;;25.90;40.70;;;;;;5067472;28;45224;-70
2022/07/12 00:31:09;;;;;;;1.30;1.20;;;25.80;40.70;;;;;;5067139;28;46356;-71
2022/07/12 00:33:36;;;;;;;1.20;1.10;;;25.80;40.70;;;;;;5066734;28;45319;-71
2022/07/12 00:36:03;;;;;;;1.27;1.10;;;25.80;40.70;;;;;;5067572;28;45304;-71
2022/07/12 00:38:30;;;;;;;1.20;1.20;;;25.80;40.80;;;;;;5067427;28;45422;-71
2022/07/12 00:40:56;;;;;;;1.20;1.20;;;25.80;40.80;;;;;;5066939;28;46662;-70
2022/07/12 00:43:25;;;;;;;1.50;1.08;;;25.80;40.80;;;;;;5066918;28;45378;-70
2022/07/12 00:45:51;;;;;;;1.20;1.10;;;25.70;41.40;;;;;;5067134;28;45314;-70
2022/07/12 00:48:18;;;;;;;1.15;1.10;;;25.70;40.90;;;;;;5067253;28;45252;-70
2022/07/12 00:50:45;;;;;;;1.52;1.42;;;25.70;41.00;;;;;;5066849;28;45203;-71
2022/07/12 00:53:13;;;;;;;1.33;1.25;;;25.70;41.00;;;;;;5066836;28;45221;-71
2022/07/12 00:55:39;;;;;;;1.83;1.20;;;25.60;40.90;;;;;;5066966;28;45490;-70
2022/07/12 00:58:06;;;;;;;1.20;1.20;;;25.60;40.90;;;;;;5067196;28;45363;-70
2022/07/12 01:00:34;;;;;;;1.27;1.17;;;25.60;41.60;;;;;;5066747;28;46622;-70
2022/07/12 01:03:02;;;;;;;1.65;1.20;;;25.60;41.00;;;;;;5066514;28;45232;-70
2022/07/12 01:05:29;;;;;;;1.77;1.20;;;25.60;41.10;;;;;;5066844;28;45265;-70
2022/07/12 01:07:56;;;;;;;1.50;1.35;;;25.50;41.00;;;;;;5066839;28;45287;-70
2022/07/12 01:10:23;;;;;;;3.00;1.30;;;25.50;41.10;;;;;;5066571;28;46405;-70
2022/07/12 01:12:50;;;;;;;1.00;1.00;;;25.50;41.10;;;;;;5066528;28;45265;-70
2022/07/12 01:15:17;;;;;;;1.40;1.30;;;25.50;41.10;;;;;;5066669;28;45241;-70
2022/07/12 01:17:46;;;;;;;1.38;1.27;;;25.50;41.20;;;;;;5066837;28;45440;-70
2022/07/12 01:20:13;;;;;;;1.50;1.40;;;25.50;41.20;;;;;;5066479;28;45791;-70
2022/07/12 01:22:41;;;;;;;1.30;1.20;;;25.50;41.30;;;;;;5066324;28;45192;-71
2022/07/12 01:25:10;;;;;;;1.38;1.27;;;25.50;41.30;;;;;;5066562;28;45202;-70
2022/07/12 01:27:38;;;;;;;1.20;1.20;;;25.40;41.20;;;;;;5066875;28;45322;-70
2022/07/12 01:30:05;;;;;;;1.30;1.20;;;25.40;41.30;;;;;;5066082;28;46418;-70
2022/07/12 01:32:32;;;;;;;1.60;1.50;;;25.40;41.30;;;;;;5066269;28;45207;-70
2022/07/12 01:35:00;;;;;;;1.42;1.33;;;25.40;41.40;;;;;;5065133;28;45310;-70
2022/07/12 01:37:29;;;;;;;2.80;1.38;;;25.40;41.40;;;;;;5066394;28;45391;-70
2022/07/12 01:39:57;;;;;;;1.15;1.15;;;25.30;41.40;;;;;;5066023;28;45416;-70
2022/07/12 01:42:26;;;;;;;1.42;1.33;;;25.30;41.40;;;;;;5066257;28;45497;-70
2022/07/12 01:44:54;;;;;;;2.35;1.50;;;25.30;41.40;;;;;;5066304;28;45225;-70
2022/07/12 01:47:21;;;;;;;1.63;1.40;;;25.30;41.50;;;;;;5066319;28;45407;-70
2022/07/12 01:49:47;;;;;;;1.15;1.15;;;25.30;41.40;;;;;;5065979;28;46363;-70
2022/07/12 01:52:14;;;;;;;1.95;1.38;;;25.30;41.50;;;;;;5065997;28;45293;-70
2022/07/12 01:54:41;;;;;;;1.40;1.30;;;25.30;41.60;;;;;;5066080;28;45248;-70
2022/07/12 01:57:08;;;;;;;1.35;1.25;;;25.20;41.50;;;;;;5066213;28;45400;-70
2022/07/12 01:59:36;;;;;;;1.67;1.40;;;25.20;42.20;;;;;;5065906;28;46423;-70
2022/07/12 02:02:04;;;;;;;1.40;1.30;;;25.20;41.60;;;;;;5065759;28;45206;-70
2022/07/12 02:04:30;;;;;;;2.42;1.63;;;25.20;41.60;;;;;;5066018;28;45380;-70
2022/07/12 02:06:57;;;;;;;1.88;1.30;;;25.20;41.70;;;;;;5066183;28;45430;-70
2022/07/12 02:09:24;;;;;;;1.50;1.40;;;25.10;41.70;;;;;;5065728;27;45530;-70
2022/07/12 02:11:51;;;;;;;1.17;1.17;;;25.10;41.70;;;;;;5065619;28;45246;-70
2022/07/12 02:14:18;;;;;;;1.40;1.30;;;25.10;41.80;;;;;;5065763;28;45261;-70
2022/07/12 02:16:46;;;;;;;1.60;1.50;;;25.10;41.80;;;;;;5065896;28;45333;-70
2022/07/12 02:19:13;;;;;;;1.42;1.40;;;25.10;41.80;;;;;;5065490;28;47338;-71
2022/07/12 02:21:40;;;;;;;1.60;1.50;;;25.10;41.90;;;;;;5065524;28;45182;-70
2022/07/12 02:24:07;;;;;;;1.40;1.30;;;25.00;41.80;;;;;;5065575;28;45280;-70
2022/07/12 02:26:34;;;;;;;1.20;1.20;;;25.00;41.80;;;;;;5065838;28;45274;-70
2022/07/12 02:29:01;;;;;;;1.65;1.30;;;25.00;41.90;;;;;;5065271;28;46488;-70
2022/07/12 02:31:28;;;;;;;1.60;1.50;;;25.00;41.80;;;;;;5065478;28;45360;-70
2022/07/12 02:33:56;;;;;;;1.20;1.20;;;25.00;41.90;;;;;;5065249;28;45235;-70
2022/07/12 02:36:23;;;;;;;1.40;1.30;;;25.00;42.00;;;;;;5065689;28;45153;-70
2022/07/12 02:38:50;;;;;;;1.00;1.00;;;25.00;41.90;;;;;;5065206;28;46357;-70
2022/07/12 02:41:16;;;;;;;1.48;1.38;;;25.00;42.00;;;;;;5065261;28;45351;-70
2022/07/12 02:43:43;;;;;;;1.40;1.30;;;25.00;41.90;;;;;;5065384;28;45395;-70
2022/07/12 02:46:11;;;;;;;1.27;1.17;;;24.90;41.90;;;;;;5065434;28;45243;-70
2022/07/12 02:48:38;;;;;;;1.60;1.33;;;24.90;42.00;;;;;;5065055;28;46694;-70
2022/07/12 02:51:07;;;;;;;1.40;1.30;;;24.90;42.00;;;;;;5065413;28;45333;-70
2022/07/12 02:53:34;;;;;;;1.88;1.38;;;24.90;42.10;;;;;;5065278;28;45387;-70
2022/07/12 02:56:01;;;;;;;1.45;1.35;;;24.80;42.20;;;;;;5065375;28;45174;-70
2022/07/12 02:58:28;;;;;;;1.40;1.30;;;24.80;42.10;;;;;;5064983;28;45532;-70
2022/07/12 03:00:55;;;;;;;1.60;1.50;;;24.80;42.90;;;;;;5064875;28;45461;-70
2022/07/12 03:03:22;;;;;;;1.40;1.30;;;24.80;42.20;;;;;;5065046;28;45303;-70
2022/07/12 03:05:49;;;;;;;1.58;1.48;;;24.80;42.30;;;;;;5065253;28;45427;-70
2022/07/12 03:08:17;;;;;;;2.22;1.27;;;24.70;42.30;;;;;;5064821;28;45722;-70
2022/07/12 03:10:44;;;;;;;1.40;1.30;;;24.80;42.30;;;;;;5064937;28;45253;-70
2022/07/12 03:13:10;;;;;;;2.17;1.35;;;24.70;42.30;;;;;;5065020;28;45378;-70
2022/07/12 03:15:37;;;;;;;1.65;1.40;;;24.70;42.30;;;;;;5065128;28;45394;-70
2022/07/12 03:18:04;;;;;;;1.50;1.40;;;24.70;42.40;;;;;;5064767;28;46578;-70
2022/07/12 03:20:31;;;;;;;1.55;1.45;;;24.70;42.30;;;;;;5064937;28;45293;-70
2022/07/12 03:22:58;;;;;;;1.67;1.58;;;24.70;43.00;;;;;;5065011;28;45220;-70
2022/07/12 03:25:26;;;;;;;1.80;1.70;;;24.70;42.40;;;;;;5064989;28;45218;-70
2022/07/12 03:27:54;;;;;;;1.55;1.45;;;24.70;42.50;;;;;;5064640;28;46615;-70
2022/07/12 03:30:21;;;;;;;1.35;1.30;;;24.60;42.50;;;;;;5064549;28;45352;-70
2022/07/12 03:32:47;;;;;;;1.45;1.38;;;24.60;42.50;;;;;;5064565;28;45220;-71
2022/07/12 03:35:15;;;;;;;1.50;1.40;;;24.60;42.60;;;;;;5064991;28;45200;-71
2022/07/12 03:37:45;;;;;;;2.80;1.63;;;24.60;42.60;;;;;;5064511;28;47907;-71
2022/07/12 03:40:13;;;;;;;1.70;1.60;;;24.60;42.60;;;;;;5064492;28;45286;-70
2022/07/12 03:42:41;;;;;;;1.60;1.45;;;24.60;42.60;;;;;;5064617;28;45288;-70
2022/07/12 03:45:08;;;;;;;1.98;1.50;;;24.50;42.60;;;;;;5064647;28;45414;-70
2022/07/12 03:47:36;;;;;;;1.48;1.38;;;24.50;42.60;;;;;;5064450;28;46404;-70
2022/07/12 03:50:04;;;;;;;1.77;1.50;;;24.50;42.60;;;;;;5064417;28;45244;-70
2022/07/12 03:52:31;;;;;;;2.28;1.65;;;24.50;42.60;;;;;;5064614;28;45352;-70
2022/07/12 03:54:58;;;;;;;1.83;1.73;;;24.50;42.70;;;;;;5064586;28;45289;-70
2022/07/12 03:57:26;;;;;;;1.63;1.52;;;24.50;42.70;;;;;;5064567;28;46401;-70
2022/07/12 03:59:54;;;;;;;1.50;1.40;;;24.50;42.70;;;;;;5067764;28;45251;-70
2022/07/12 04:02:21;;;;;;;1.52;1.42;;;24.40;42.70;;;;;;5067741;28;45318;-70
2022/07/12 04:04:47;;;;;;;1.58;1.48;;;24.40;42.70;;;;;;5067889;28;45372;-70
2022/07/12 04:07:14;;;;;;;1.58;1.48;;;24.40;42.80;;;;;;5067464;28;45551;-71
2022/07/12 04:09:42;;;;;;;1.45;1.35;;;24.40;43.40;;;;;;5067585;28;45226;-70
2022/07/12 04:12:09;;;;;;;2.90;1.60;;;24.40;42.90;;;;;;5067692;28;45227;-70
2022/07/12 04:14:36;;;;;;;2.10;1.63;;;24.40;43.00;;;;;;5067759;28;45391;-70
2022/07/12 04:17:05;;;;;;;1.60;1.50;;;24.30;42.90;;;;;;5067326;28;46633;-70
2022/07/12 04:19:32;;;;;;;2.38;1.80;;;24.30;43.50;;;;;;5067095;28;45290;-70
2022/07/12 04:21:59;;;;;;;1.65;1.55;;;24.30;42.90;;;;;;5067492;28;45165;-71
2022/07/12 04:24:26;;;;;;;1.50;1.40;;;24.30;42.90;;;;;;5067595;28;45411;-70
2022/07/12 04:26:53;;;;;;;1.58;1.48;;;24.30;42.90;;;;;;5067222;28;45286;-70
2022/07/12 04:29:20;;;;;;;1.92;1.50;;;24.30;42.90;;;;;;5067141;28;45286;-70
2022/07/12 04:31:47;;;;;;;4.22;1.67;;;24.30;42.90;;;;;;5067349;28;45183;-70
2022/07/12 04:34:16;;;;;;;1.50;1.40;;;24.30;43.10;;;;;;5067220;28;45405;-70
2022/07/12 04:36:43;;;;;;;1.67;1.58;;;24.20;43.00;;;;;;5066905;28;46697;-70
2022/07/12 04:39:10;;;;;;;1.50;1.40;;;24.20;43.10;;;;;;5067102;28;45330;-70
2022/07/12 04:41:37;;;;;;;1.73;1.63;;;24.20;43.10;;;;;;5067233;28;45238;-70
2022/07/12 04:44:05;;;;;;;1.58;1.48;;;24.20;43.10;;;;;;5067165;28;45327;-70
2022/07/12 04:46:31;;;;;;;1.65;1.55;;;24.20;43.10;;;;;;5066903;28;46918;-70
2022/07/12 04:48:58;;;;;;;1.48;1.40;;;24.20;43.20;;;;;;5066884;28;45236;-70
2022/07/12 04:51:26;;;;;;;1.70;1.60;;;24.10;43.20;;;;;;5067077;28;45326;-71
2022/07/12 04:53:53;;;;;;;1.50;1.40;;;24.10;43.20;;;;;;5067070;28;45130;-70
2022/07/12 04:56:20;;;;;;;1.70;1.60;;;24.10;43.20;;;;;;5066729;28;47590;-70
2022/07/12 04:58:47;;;;;;;1.55;1.48;;;24.10;43.20;;;;;;5066703;28;45342;-71
2022/07/12 05:01:14;;;;;;;1.65;1.55;;;24.10;43.40;;;;;;5066783;28;45282;-70
2022/07/12 05:03:41;;;;;;;1.70;1.60;;;24.10;44.00;;;;;;5067043;28;45551;-70
2022/07/12 05:06:08;;;;;;;1.80;1.70;;;24.10;44.00;;;;;;5066404;28;45467;-70
2022/07/12 05:08:36;;;;;;;1.60;1.50;;;24.10;43.40;;;;;;5066473;28;45271;-70
2022/07/12 05:11:03;;;;;;;1.80;1.70;;;24.10;43.40;;;;;;5066749;28;45267;-70
2022/07/12 05:13:30;;;;;;;1.48;1.38;;;24.10;43.40;;;;;;5066820;28;45403;-70
2022/07/12 05:15:57;;;;;;;1.77;1.67;;;24.10;43.40;;;;;;5066373;28;45247;-70
2022/07/12 05:18:23;;;;;;;2.00;1.88;;;24.10;43.40;;;;;;5066459;28;45302;-70
2022/07/12 05:20:50;;;;;;;1.60;1.50;;;24.10;43.40;;;;;;5066490;28;45195;-70
2022/07/12 05:23:17;;;;;;;2.10;1.90;;;24.10;43.30;;;;;;5066670;28;45282;-70
2022/07/12 05:25:45;;;;;;;1.58;1.48;;;24.10;43.30;;;;;;5066313;28;47832;-70
2022/07/12 05:28:12;;;;;;;1.95;1.85;;;24.20;43.30;;;;;;5066263;28;45251;-70
2022/07/12 05:30:39;;;;;;;1.95;1.75;;;24.20;43.30;;;;;;5046489;28;45284;-70
2022/07/12 05:33:06;;;;;;;1.80;1.60;;;24.10;43.20;;;;;;5046131;28;45192;-70
2022/07/12 05:35:33;;;;;;;1.73;1.63;;;24.10;43.20;;;;;;5045929;28;46778;-70
2022/07/12 05:37:59;;;;;;;1.80;1.63;;;24.10;43.30;;;;;;5045989;28;45289;-70
2022/07/12 05:40:26;;;;;;;1.90;1.70;;;24.10;43.20;;;;;;5045948;28;45309;-71
2022/07/12 05:42:54;;;;;;;2.10;1.90;;;24.10;43.20;;;;;;5046193;28;45250;-71
2022/07/12 05:45:22;;;;;;;1.60;1.50;;;24.10;43.30;;;;;;5045692;28;45550;-70
2022/07/12 05:47:49;;;;;;;1.67;1.58;;;24.10;43.30;;;;;;5045716;28;45304;-70
2022/07/12 05:50:16;;;;;;;1.60;1.50;;;24.10;43.20;;;;;;5045897;28;45326;-70
2022/07/12 05:55:27;;;;;;;2.03;1.73;;;24.10;43.30;;;;;;5043147;28;45351;-70
2022/07/12 05:57:55;;;;;;;2.67;1.70;;;24.10;43.30;;;;;;5045566;28;45261;-70
2022/07/12 06:00:22;;;;;;;2.38;2.17;;;24.10;43.30;;;;;;5045759;28;45319;-70
2022/07/12 06:02:48;;;;;;;1.85;1.73;;;24.10;43.30;;;;;;5063356;28;45359;-70
2022/07/12 06:05:15;;;;;;;1.67;1.58;;;24.10;43.30;;;;;;5065447;28;45399;-70
2022/07/12 06:07:42;;;;;;;1.58;1.48;;;24.10;43.30;;;;;;5065722;28;45240;-71
2022/07/12 06:10:10;;;;;;;2.10;1.75;;;24.10;43.30;;;;;;5065795;28;45184;-70
2022/07/12 06:12:37;;;;;;;1.90;1.67;;;24.10;43.30;;;;;;5066212;28;45179;-70
2022/07/12 06:15:07;;;;;;;1.70;1.60;;;24.10;43.30;;;;;;5065508;28;46383;-70
2022/07/12 06:17:34;;;;;;;2.63;1.70;;;24.10;43.40;;;;;;5065696;28;45169;-70
2022/07/12 06:20:00;;;;;;;1.55;1.45;;;24.10;43.30;;;;;;5065166;28;45220;-70
2022/07/12 06:22:27;;;;;;;1.80;1.65;;;24.10;43.40;;;;;;5065670;28;45445;-72
2022/07/12 06:24:54;;;;;;;1.80;1.70;;;24.10;43.30;;;;;;5065269;28;46716;-70
2022/07/12 06:27:21;;;;;;;1.80;1.70;;;24.10;43.30;;;;;;5065357;28;45362;-71
2022/07/12 06:29:48;;;;;;;1.90;1.80;;;24.10;43.30;;;;;;5065329;28;45520;-70
2022/07/12 06:32:16;;;;;;;1.83;1.65;;;24.10;43.30;;;;;;5065701;28;45202;-72
2022/07/12 06:34:43;;;;;;;1.92;1.80;;;24.10;43.30;;;;;;5066166;28;46735;-71
2022/07/12 06:37:12;;;;;;;1.60;1.50;;;24.10;43.30;;;;;;5066444;28;45298;-73
2022/07/12 06:39:39;;;;;;;2.17;1.98;;;24.10;43.30;;;;;;5066400;28;45253;-70
2022/07/12 06:42:06;;;;;;;1.67;1.58;;;24.20;43.40;;;;;;5066684;28;45172;-70
2022/07/12 06:44:33;;;;;;;1.70;1.60;;;24.20;43.30;;;;;;5065945;28;46405;-70
2022/07/12 06:47:00;;;;;;;2.00;1.85;;;24.20;43.40;;;;;;5066073;28;45287;-71
2022/07/12 06:49:28;;;;;;;1.80;1.70;;;24.20;43.30;;;;;;5066232;28;45293;-70
2022/07/12 06:51:55;;;;;;;1.50;1.40;;;24.20;44.00;;;;;;5066495;28;45402;-69
2022/07/12 06:54:22;;;;;;;1.77;1.67;;;24.20;43.40;;;;;;5065759;28;45252;-70
2022/07/12 06:56:49;;;;;;;1.90;1.80;;;24.20;43.40;;;;;;5065449;28;45245;-70
2022/07/12 06:59:16;;;;;;;1.60;1.50;;;24.20;43.40;;;;;;5066200;28;45292;-70
2022/07/12 07:01:43;;;;;;;1.70;1.60;;;24.20;43.40;;;;;;5066441;28;45303;-69
2022/07/12 07:04:10;;;;;;;1.60;1.50;;;24.20;43.40;;;;;;5065935;28;45334;-70
2022/07/12 07:06:38;;;;;;;1.73;1.63;;;24.20;43.40;;;;;;5065837;28;45203;-70
2022/07/12 07:09:07;;;;;;;1.35;1.33;;;24.20;43.40;;;;;;5066219;28;45303;-70
2022/07/12 07:11:34;;;;;;;1.60;1.50;;;24.20;43.40;;;;;;5067129;28;45270;-70
2022/07/12 07:14:01;;;;;;;2.25;1.75;;;24.20;43.40;;;;;;5066447;28;46374;-70
2022/07/12 07:16:28;;;;;;;1.45;1.35;;;24.20;43.40;;;;;;5065896;28;45209;-70
2022/07/12 07:18:55;;;;;;;1.60;1.50;;;24.30;43.50;;;;;;5066194;28;45417;-70
2022/07/12 07:21:22;;;;;;;1.60;1.50;;;24.30;44.10;;;;;;5066333;28;45307;-70
2022/07/12 07:23:50;;;;;;;1.60;1.50;;;24.30;43.50;;;;;;5065863;28;47394;-70
2022/07/12 07:26:16;;;;;;;2.22;1.30;;;24.30;43.50;;;;;;5065862;28;45283;-70
2022/07/12 07:31:27;;;;;;;1.48;1.38;;;24.40;43.50;;;;;;5066321;28;45149;-70
2022/07/12 07:33:54;;;;;;;1.73;1.42;;;24.40;43.50;;;;;;5067425;28;45562;-70
2022/07/12 07:36:21;;;;;;;1.58;1.30;;;24.40;43.50;;;;;;5069280;28;45347;-70
2022/07/12 07:38:50;;;;;;;1.70;1.60;;;24.40;43.40;;;;;;5069372;28;45312;-70
2022/07/12 07:41:17;;;;;;;2.70;1.40;;;24.50;43.50;;;;;;5069506;28;45328;-70
2022/07/12 07:43:43;;;;;;;2.50;1.50;;;24.50;43.30;;;;;;5068915;28;45455;-70
2022/07/12 07:46:10;;;;;;;2.22;1.52;;;24.50;43.30;;;;;;5068229;28;45354;-71
2022/07/12 07:48:37;;;;;;;2.30;1.63;;;24.50;43.20;;;;;;5069113;28;45362;-75
2022/07/12 07:51:04;;;;;;;1.85;1.75;;;24.50;43.20;;;;;;5069308;28;45517;-71
2022/07/12 07:53:31;;;;;;;1.40;1.30;;;24.60;43.20;;;;;;5069047;28;47386;-71
2022/07/12 07:55:59;;;;;;;1.55;1.45;;;24.60;43.20;;;;;;5068852;28;45194;-73
2022/07/12 07:58:26;;;;;;;1.63;1.52;;;24.60;43.30;;;;;;5068919;28;45319;-71
2022/07/12 08:00:52;;;;;;;1.25;1.25;;;24.60;43.10;;;;;;5069230;28;45407;-71
2022/07/12 08:03:19;;;;;;;1.38;1.38;;;24.70;43.00;;;;;;5068679;28;46792;-71
2022/07/12 08:05:46;;;;;;;1.50;1.40;;;24.70;43.00;;;;;;5068602;28;45219;-71
2022/07/12 08:08:13;;;;;;;1.52;1.42;;;24.70;43.00;;;;;;5068959;28;45204;-71
2022/07/12 08:10:40;;;;;;;1.40;1.30;;;24.70;42.90;;;;;;5069029;28;45428;-71
2022/07/12 08:13:08;;;;;;;1.60;1.50;;;24.70;42.90;;;;;;5068668;28;45315;-71
2022/07/12 08:15:35;;;;;;;1.67;1.50;;;24.80;43.60;;;;;;5068454;28;45256;-71
2022/07/12 08:18:03;;;;;;;1.48;1.38;;;24.80;43.00;;;;;;5068838;28;45138;-71
2022/07/12 08:20:29;;;;;;;1.35;1.25;;;24.80;42.70;;;;;;5068783;28;45188;-72
2022/07/12 08:22:56;;;;;;;1.58;1.48;;;24.80;42.60;;;;;;5068477;28;45550;-71
2022/07/12 08:25:23;;;;;;;1.60;1.50;;;24.90;42.50;;;;;;5068607;28;45390;-71
2022/07/12 08:27:50;;;;;;;4.03;2.40;;;24.90;42.60;;;;;;5068531;28;45198;-72
2022/07/12 08:30:18;;;;;;;1.70;1.60;;;24.90;45.30;;;;;;5068005;28;45418;-72
2022/07/12 08:32:45;;;;;;;2.10;1.85;;;24.90;45.80;;;;;;5068017;28;45435;-71
2022/07/12 08:35:12;;;;;;;5.47;1.90;;;24.90;45.60;;;;;;5068366;28;45318;-72
2022/07/12 08:37:39;;;;;;;1.60;1.50;;;24.80;46.30;;;;;;5068339;28;45534;-72
2022/07/12 08:40:07;;;;;;;1.70;1.60;;;24.90;46.50;;;;;;5068601;28;45248;-74
2022/07/12 08:42:34;;;;;;;3.30;1.90;;;24.80;46.20;;;;;;5068197;28;46376;-74
2022/07/12 08:45:01;;;;;;;1.77;1.60;;;24.90;46.30;;;;;;5067580;28;45415;-73
2022/07/12 08:47:29;;;;;;;2.20;1.60;;;24.90;46.60;;;;;;5068480;28;45287;-74
2022/07/12 08:50:12;;;;;;;3.13;1.77;;;24.90;47.60;;;;;;5068253;28;45263;-70
2022/07/12 08:52:40;;;;;;;3.58;2.05;;;24.90;47.00;;;;;;5068043;28;45460;-73
2022/07/12 08:55:17;;;;;;;3.53;1.77;;;25.00;46.80;;;;;;5067765;28;45235;-70
2022/07/12 08:57:44;;;;;;;2.03;1.65;;;25.00;46.80;;;;;;5068024;28;45193;-71
2022/07/12 09:00:12;;;;;;;8.40;2.05;;;25.10;46.80;;;;;;5067057;28;45355;-71
2022/07/12 09:02:48;;;;;;;1.75;1.65;;;25.10;46.70;;;;;;5068140;28;45713;-74
2022/07/12 09:05:16;;;;;;;2.45;1.83;;;25.10;46.60;;;;;;5065568;28;46437;-72
2022/07/12 09:07:43;;;;;;;2.35;1.73;;;25.00;46.40;;;;;;5071022;28;44845;-72
2022/07/12 09:10:12;;;;;;;2.55;1.83;;;25.00;46.20;;;;;;5066994;28;45597;-73
2022/07/12 09:12:40;;;;;;;2.05;1.90;;;25.10;46.10;;;;;;5058689;28;45563;-72
2022/07/12 09:15:17;;;;;;;1.90;1.80;;;25.20;45.90;;;;;;5067717;28;45241;-71
2022/07/12 09:17:58;;;;;;;3.60;1.73;;;25.20;45.90;;;;;;5067782;28;45196;-71
2022/07/12 09:20:26;;;;;;;1.70;1.60;;;25.20;45.70;;;;;;5067919;28;45314;-71
2022/07/12 09:22:55;;;;;;;2.58;1.80;;;25.30;45.70;;;;;;5067753;28;46375;-73
2022/07/12 09:25:22;;;;;;;1.90;1.80;;;25.30;46.70;;;;;;5067628;28;45248;-73
2022/07/12 09:27:51;;;;;;;2.28;1.88;;;25.40;46.20;;;;;;5067650;28;45274;-74
2022/07/12 09:30:18;;;;;;;2.65;1.83;;;25.40;46.30;;;;;;5067592;28;45198;-74
2022/07/12 09:38:28;;;;;;;3.80;2.00;;;25.50;46.00;;;;;;5064829;28;45283;-74
2022/07/12 09:40:55;;;;;;;1.95;1.70;;;25.60;46.00;;;;;;5067534;28;45262;-74
2022/07/12 09:43:23;;;;;;;2.63;1.80;;;25.70;45.90;;;;;;5067318;28;46607;-74
2022/07/12 09:45:50;;;;;;;3.53;2.00;;;25.70;45.90;;;;;;5067100;28;45282;-74
2022/07/12 09:48:18;;;;;;;2.75;2.03;;;25.70;45.90;;;;;;5067575;28;45306;-73
2022/07/12 09:50:47;;;;;;;1.98;1.80;;;25.80;45.80;;;;;;5067417;28;45253;-73
2022/07/12 09:53:17;;;;;;;1.92;1.77;;;25.80;45.60;;;;;;5066852;28;46643;-74
2022/07/12 09:55:44;;;;;;;3.40;1.83;;;25.90;45.60;;;;;;5065724;28;45244;-74
2022/07/12 09:58:10;;;;;;;2.55;1.75;;;25.90;45.50;;;;;;5067322;28;45378;-74
2022/07/12 10:00:37;;;;;;;1.90;1.80;;;26.00;45.50;;;;;;5067192;28;45186;-74
2022/07/12 10:03:04;;;;;;;1.98;1.50;;;26.00;45.30;;;;;;5066837;28;45364;-74
2022/07/12 10:05:32;;;;;;;2.30;1.77;;;26.00;45.30;;;;;;5066926;28;45177;-74
2022/07/12 10:07:59;;;;;;;2.65;1.50;;;26.00;45.80;;;;;;5067094;28;45408;-73
2022/07/12 10:10:26;;;;;;;1.80;1.70;;;26.10;45.10;;;;;;5067080;28;45330;-74
2022/07/12 10:12:53;;;;;;;1.98;1.77;;;26.10;44.90;;;;;;5067011;28;47806;-75
2022/07/12 10:15:21;;;;;;;1.88;1.70;;;26.10;45.00;;;;;;5067044;28;45222;-74
2022/07/12 10:17:53;;;;;;;3.80;1.45;;;26.20;45.30;;;;;;5066853;28;45450;-74
2022/07/12 10:20:22;;;;;;;3.30;2.05;;;26.20;45.50;;;;;;5067032;28;45187;-75
2022/07/12 10:22:50;;;;;;;2.17;1.63;;;26.30;45.50;;;;;;5066588;28;45465;-74
2022/07/12 10:25:30;;;;;;;5.13;2.30;;;26.30;45.30;;;;;;5066910;28;45241;-74
2022/07/12 10:27:58;;;;;;;2.08;1.83;;;26.40;45.30;;;;;;5066744;28;45399;-74
2022/07/12 10:30:25;;;;;;;3.80;1.80;;;26.40;45.20;;;;;;5066828;28;45269;-72
2022/07/12 10:32:53;;;;;;;3.63;1.90;;;26.40;45.10;;;;;;5066295;28;46325;-73
2022/07/12 10:35:21;;;;;;;2.72;1.77;;;26.50;45.00;;;;;;5066322;28;45163;-72
2022/07/12 10:38:18;;;;;;;3.75;1.90;;;26.50;44.90;;;;;;5065501;28;45315;-72
2022/07/12 10:40:45;;;;;;;3.03;2.00;;;26.50;44.80;;;;;;5065466;28;45355;-73
2022/07/12 10:46:07;;;;;;;2.85;1.85;;;26.60;44.60;;;;;;5064653;28;45323;-72
2022/07/12 10:48:34;;;;;;;7.35;2.10;;;26.70;44.50;;;;;;5064719;28;45463;-72
2022/07/12 10:51:01;;;;;;;2.25;2.05;;;26.70;44.50;;;;;;5065406;28;45498;-72
2022/07/12 10:53:33;;;;;;;5.88;2.10;;;26.70;44.30;;;;;;5064698;28;45792;-73
2022/07/12 10:56:17;;;;;;;1.92;1.80;;;26.70;44.30;;;;;;5066222;28;45169;-72
2022/07/12 10:58:45;;;;;;;3.10;1.67;;;26.80;44.30;;;;;;5066220;28;45329;-73
2022/07/12 11:01:12;;;;;;;2.70;1.77;;;26.80;43.80;;;;;;5066327;28;45414;-72
2022/07/12 11:03:40;;;;;;;2.05;1.70;;;26.90;43.60;;;;;;5065980;28;45480;-73
2022/07/12 11:06:08;;;;;;;2.00;1.90;;;26.90;43.20;;;;;;5066153;28;45348;-74
2022/07/12 11:08:52;;;;;;;5.00;2.10;;;27.00;42.80;;;;;;5066442;28;45201;-73
2022/07/12 11:11:19;;;;;;;2.30;2.10;;;27.00;42.50;;;;;;5070471;28;45393;-73
2022/07/12 11:13:46;;;;;;;2.50;2.30;;;27.10;42.70;;;;;;5068729;28;45352;-73
2022/07/12 11:16:12;;;;;;;2.45;1.83;;;27.10;42.40;;;;;;5069688;28;45660;-73
2022/07/12 11:18:39;;;;;;;4.50;1.92;;;27.10;42.00;;;;;;5069561;28;45292;-74
2022/07/12 11:21:06;;;;;;;2.30;1.73;;;27.20;41.80;;;;;;5069589;28;45419;-74
2022/07/12 11:23:34;;;;;;;2.08;1.80;;;27.30;41.80;;;;;;5069355;28;47327;-74
2022/07/12 11:26:03;;;;;;;4.57;1.90;;;27.30;41.70;;;;;;5068185;28;45224;-74
2022/07/12 11:28:31;;;;;;;2.72;1.98;;;27.40;41.50;;;;;;5068285;28;45331;-74
2022/07/12 11:31:02;;;;;;;2.17;2.05;;;27.50;41.40;;;;;;5068323;28;45504;-74
2022/07/12 11:33:32;;;;;;;2.13;2.00;;;27.50;41.00;;;;;;5067629;28;46755;-74
2022/07/12 11:35:59;;;;;;;2.45;1.88;;;27.60;41.10;;;;;;5067869;28;45303;-75
2022/07/12 11:38:26;;;;;;;1.80;1.70;;;27.60;40.90;;;;;;5068288;28;45263;-74
2022/07/12 11:40:56;;;;;;;1.98;1.88;;;27.60;40.70;;;;;;5068689;28;45206;-74
2022/07/12 11:43:25;;;;;;;3.30;2.00;;;27.60;40.60;;;;;;5068930;28;46653;-76
2022/07/12 11:45:52;;;;;;;2.53;2.33;;;27.70;40.60;;;;;;5072144;28;45192;-75
2022/07/12 11:48:19;;;;;;;5.35;1.85;;;27.80;40.70;;;;;;5069831;28;45253;-75
2022/07/12 11:50:45;;;;;;;3.03;2.00;;;27.80;40.60;;;;;;5069745;28;45263;-74
2022/07/12 11:53:16;;;;;;;2.58;1.80;;;27.90;40.30;;;;;;5069027;28;45413;-74
2022/07/12 11:55:44;;;;;;;2.35;1.80;;;28.00;40.10;;;;;;5068944;28;45278;-74
2022/07/12 11:58:11;;;;;;;1.80;1.70;;;28.00;39.80;;;;;;5069518;28;45342;-74
2022/07/12 12:00:39;;;;;;;2.22;2.10;;;28.10;39.70;;;;;;5069126;28;45371;-74
2022/07/12 12:03:06;;;;;;;2.55;1.90;;;28.10;39.60;;;;;;5069050;28;46653;-74
2022/07/12 12:05:34;;;;;;;2.28;1.80;;;28.10;39.30;;;;;;5068342;28;45275;-73
2022/07/12 12:08:00;;;;;;;2.53;1.92;;;28.20;39.60;;;;;;5068776;28;45368;-73
2022/07/12 12:10:27;;;;;;;1.85;1.75;;;28.20;39.50;;;;;;5069177;28;45288;-76
2022/07/12 12:12:55;;;;;;;3.60;1.60;;;28.20;39.30;;;;;;5069017;28;45262;-75
2022/07/12 12:15:22;;;;;;;4.63;2.13;;;28.30;39.30;;;;;;5066215;28;45191;-74
2022/07/12 12:17:54;;;;;;;2.60;1.80;;;28.40;39.00;;;;;;5068660;28;45306;-74
2022/07/12 12:20:22;;;;;;;3.38;1.67;;;28.40;38.80;;;;;;5068809;28;45149;-74
2022/07/12 12:22:49;;;;;;;2.13;1.92;;;28.50;39.10;;;;;;5066070;28;45533;-75
2022/07/12 12:25:16;;;;;;;1.70;1.60;;;28.50;38.90;;;;;;5068548;28;45316;-74
2022/07/12 12:27:44;;;;;;;2.28;1.80;;;28.60;39.10;;;;;;5069151;28;45427;-75
2022/07/12 12:30:12;;;;;;;3.08;1.70;;;28.60;38.80;;;;;;5068611;28;45496;-74
2022/07/12 12:32:48;;;;;;;2.05;1.60;;;28.70;39.00;;;;;;5068201;28;45222;-74
2022/07/12 12:35:17;;;;;;;2.00;1.90;;;28.60;38.90;;;;;;5068659;28;45331;-73
2022/07/12 12:37:55;;;;;;;2.65;1.90;;;28.70;38.90;;;;;;5068122;28;45182;-73
2022/07/12 12:40:23;;;;;;;2.47;1.60;;;28.70;38.80;;;;;;5068645;28;45210;-73
2022/07/12 12:42:50;;;;;;;2.60;1.80;;;28.80;38.60;;;;;;5068090;28;46398;-74
2022/07/12 12:45:21;;;;;;;1.98;1.60;;;28.90;38.20;;;;;;5068210;28;45252;-74
2022/07/12 12:47:55;;;;;;;1.90;1.48;;;29.00;38.10;;;;;;5068618;28;45188;-75
2022/07/12 12:50:39;;;;;;;2.78;1.92;;;29.00;38.20;;;;;;5065963;28;45160;-74
2022/07/12 12:53:13;;;;;;;1.85;1.73;;;29.10;38.10;;;;;;5067632;28;46413;-73
2022/07/12 12:55:40;;;;;;;2.05;1.77;;;29.10;37.90;;;;;;5068309;28;45222;-74
2022/07/12 12:58:07;;;;;;;2.95;1.65;;;29.10;38.50;;;;;;5068119;28;45154;-74
2022/07/12 13:00:33;;;;;;;2.35;1.70;;;29.10;37.80;;;;;;5068237;28;45261;-74
2022/07/12 13:03:00;;;;;;;2.88;1.67;;;29.10;37.90;;;;;;5067774;28;45397;-74
2022/07/12 13:05:28;;;;;;;4.72;1.98;;;29.20;37.90;;;;;;5067857;28;45374;-74